sensor_id;sensor_type;location;lat;lon;timestamp;temperature;humidity
54126;DHT22;40360;52.992;6.796;2022-11-11T00:00:32;11.10;99.90
54126;DHT22;40360;52.992;6.796;2022-11-11T00:02:59;11.10;99.90
54126;DHT22;40360;52.992;6.796;2022-11-11T00:05:25;11.00;99.90
54126;DHT22;40360;52.992;6.796;2022-11-11T00:07:52;11.00;99.90
54126;DHT22;40360;52.992;6.796;2022-11-11T00:10:18;11.10;99.90
54126;DHT22;40360;52.992;6.796;2022-11-11T00:12:44;11.10;99.90
54126;DHT22;40360;52.992;6.796;2022-11-11T00:15:10;11.10;99.90
54126;DHT22;40360;52.992;6.796;2022-11-11T00:17:35;11.10;99.90
54126;DHT22;40360;52.992;6.796;2022-11-11T00:20:20;11.10;99.90
54126;DHT22;40360;52.992;6.796;2022-11-11T00:23:04;11.10;99.90
54126;DHT22;40360;52.992;6.796;2022-11-11T00:25:52;11.10;99.90
54126;DHT22;40360;52.992;6.796;2022-11-11T00:28:18;11.20;99.90
54126;DHT22;40360;52.992;6.796;2022-11-11T00:30:44;11.20;99.90
54126;DHT22;40360;52.992;6.796;2022-11-11T00:33:09;11.20;99.90
54126;DHT22;40360;52.992;6.796;2022-11-11T00:35:35;11.30;99.90
54126;DHT22;40360;52.992;6.796;2022-11-11T00:38:19;11.20;99.90
54126;DHT22;40360;52.992;6.796;2022-11-11T00:41:03;11.30;99.90
54126;DHT22;40360;52.992;6.796;2022-11-11T00:43:29;11.30;99.90
54126;DHT22;40360;52.992;6.796;2022-11-11T00:45:55;11.30;99.90
54126;DHT22;40360;52.992;6.796;2022-11-11T00:48:40;11.40;99.90
54126;DHT22;40360;52.992;6.796;2022-11-11T00:51:25;11.40;99.90
54126;DHT22;40360;52.992;6.796;2022-11-11T00:53:51;11.40;99.90
54126;DHT22;40360;52.992;6.796;2022-11-11T00:56:17;11.40;99.90
54126;DHT22;40360;52.992;6.796;2022-11-11T00:58:42;11.40;99.90
54126;DHT22;40360;52.992;6.796;2022-11-11T01:01:08;11.30;99.90
54126;DHT22;40360;52.992;6.796;2022-11-11T01:03:33;11.30;99.90
54126;DHT22;40360;52.992;6.796;2022-11-11T01:06:00;11.30;99.90
54126;DHT22;40360;52.992;6.796;2022-11-11T01:08:26;11.30;99.90
54126;DHT22;40360;52.992;6.796;2022-11-11T01:10:51;11.40;99.90
54126;DHT22;40360;52.992;6.796;2022-11-11T01:13:23;11.30;99.90
54126;DHT22;40360;52.992;6.796;2022-11-11T01:15:51;11.40;99.90
54126;DHT22;40360;52.992;6.796;2022-11-11T01:18:21;11.30;99.90
54126;DHT22;40360;52.992;6.796;2022-11-11T01:20:46;11.30;99.90
54126;DHT22;40360;52.992;6.796;2022-11-11T01:23:13;11.40;99.90
54126;DHT22;40360;52.992;6.796;2022-11-11T01:25:40;11.30;99.90
54126;DHT22;40360;52.992;6.796;2022-11-11T01:28:07;11.30;99.90
54126;DHT22;40360;52.992;6.796;2022-11-11T01:30:34;11.30;99.90
54126;DHT22;40360;52.992;6.796;2022-11-11T01:33:01;11.30;99.90
54126;DHT22;40360;52.992;6.796;2022-11-11T01:35:27;11.20;99.90
54126;DHT22;40360;52.992;6.796;2022-11-11T01:37:53;11.20;99.90
54126;DHT22;40360;52.992;6.796;2022-11-11T01:40:18;11.20;99.90
54126;DHT22;40360;52.992;6.796;2022-11-11T01:42:52;11.20;99.90
54126;DHT22;40360;52.992;6.796;2022-11-11T01:48:34;11.10;99.90
54126;DHT22;40360;52.992;6.796;2022-11-11T01:51:40;11.10;99.90
54126;DHT22;40360;52.992;6.796;2022-11-11T01:54:14;11.00;99.90
54126;DHT22;40360;52.992;6.796;2022-11-11T01:56:42;11.00;99.90
54126;DHT22;40360;52.992;6.796;2022-11-11T01:59:12;11.00;99.90
54126;DHT22;40360;52.992;6.796;2022-11-11T02:01:40;10.90;99.90
54126;DHT22;40360;52.992;6.796;2022-11-11T02:04:07;10.90;99.90
54126;DHT22;40360;52.992;6.796;2022-11-11T02:06:59;10.90;99.90
54126;DHT22;40360;52.992;6.796;2022-11-11T02:09:25;10.90;99.90
54126;DHT22;40360;52.992;6.796;2022-11-11T02:11:53;10.80;99.90
54126;DHT22;40360;52.992;6.796;2022-11-11T02:14:44;10.80;99.90
54126;DHT22;40360;52.992;6.796;2022-11-11T02:17:12;10.80;99.90
54126;DHT22;40360;52.992;6.796;2022-11-11T02:22:13;10.70;99.90
54126;DHT22;40360;52.992;6.796;2022-11-11T02:24:41;10.70;99.90
54126;DHT22;40360;52.992;6.796;2022-11-11T02:27:10;10.60;99.90
54126;DHT22;40360;52.992;6.796;2022-11-11T02:29:36;10.60;99.90
54126;DHT22;40360;52.992;6.796;2022-11-11T02:32:03;10.50;99.90
54126;DHT22;40360;52.992;6.796;2022-11-11T02:34:31;10.60;99.90
54126;DHT22;40360;52.992;6.796;2022-11-11T02:36:58;10.50;99.90
54126;DHT22;40360;52.992;6.796;2022-11-11T02:39:25;10.50;99.90
54126;DHT22;40360;52.992;6.796;2022-11-11T02:41:51;10.50;99.90
54126;DHT22;40360;52.992;6.796;2022-11-11T02:44:23;10.40;99.90
54126;DHT22;40360;52.992;6.796;2022-11-11T02:46:49;10.40;99.90
54126;DHT22;40360;52.992;6.796;2022-11-11T02:49:15;10.40;99.90
54126;DHT22;40360;52.992;6.796;2022-11-11T02:51:40;10.40;99.90
54126;DHT22;40360;52.992;6.796;2022-11-11T02:54:06;10.40;99.90
54126;DHT22;40360;52.992;6.796;2022-11-11T02:56:31;10.40;99.90
54126;DHT22;40360;52.992;6.796;2022-11-11T02:59:16;10.40;99.90
54126;DHT22;40360;52.992;6.796;2022-11-11T03:01:42;10.40;99.90
54126;DHT22;40360;52.992;6.796;2022-11-11T03:04:07;10.40;99.90
54126;DHT22;40360;52.992;6.796;2022-11-11T03:06:33;10.40;99.90
54126;DHT22;40360;52.992;6.796;2022-11-11T03:08:58;10.40;99.90
54126;DHT22;40360;52.992;6.796;2022-11-11T03:11:24;10.50;99.90
54126;DHT22;40360;52.992;6.796;2022-11-11T03:13:54;10.50;99.90
54126;DHT22;40360;52.992;6.796;2022-11-11T03:16:23;10.50;99.90
54126;DHT22;40360;52.992;6.796;2022-11-11T03:19:07;10.50;99.90
54126;DHT22;40360;52.992;6.796;2022-11-11T03:21:33;10.50;99.90
54126;DHT22;40360;52.992;6.796;2022-11-11T03:23:58;10.50;99.90
54126;DHT22;40360;52.992;6.796;2022-11-11T03:26:24;10.50;99.90
54126;DHT22;40360;52.992;6.796;2022-11-11T03:28:50;10.50;99.90
54126;DHT22;40360;52.992;6.796;2022-11-11T03:31:16;10.60;99.90
54126;DHT22;40360;52.992;6.796;2022-11-11T03:33:42;10.60;99.90
54126;DHT22;40360;52.992;6.796;2022-11-11T03:36:08;10.60;99.90
54126;DHT22;40360;52.992;6.796;2022-11-11T03:38:33;10.60;99.90
54126;DHT22;40360;52.992;6.796;2022-11-11T03:40:59;10.60;99.90
54126;DHT22;40360;52.992;6.796;2022-11-11T03:43:27;10.60;99.90
54126;DHT22;40360;52.992;6.796;2022-11-11T03:45:55;10.70;99.90
54126;DHT22;40360;52.992;6.796;2022-11-11T03:48:21;10.60;99.90
54126;DHT22;40360;52.992;6.796;2022-11-11T03:50:47;10.60;99.90
54126;DHT22;40360;52.992;6.796;2022-11-11T03:53:14;10.60;99.90
54126;DHT22;40360;52.992;6.796;2022-11-11T03:55:40;10.70;99.90
54126;DHT22;40360;52.992;6.796;2022-11-11T03:58:06;10.60;99.90
54126;DHT22;40360;52.992;6.796;2022-11-11T04:00:32;10.60;99.90
54126;DHT22;40360;52.992;6.796;2022-11-11T04:03:11;10.70;99.90
54126;DHT22;40360;52.992;6.796;2022-11-11T04:05:55;10.50;99.90
54126;DHT22;40360;52.992;6.796;2022-11-11T04:08:39;10.60;99.90
54126;DHT22;40360;52.992;6.796;2022-11-11T04:11:27;10.50;99.90
54126;DHT22;40360;52.992;6.796;2022-11-11T04:13:53;10.60;99.90
54126;DHT22;40360;52.992;6.796;2022-11-11T04:16:39;10.50;99.90
54126;DHT22;40360;52.992;6.796;2022-11-11T04:19:04;10.60;99.90
54126;DHT22;40360;52.992;6.796;2022-11-11T04:21:48;10.50;99.90
54126;DHT22;40360;52.992;6.796;2022-11-11T04:24:16;10.60;99.90
54126;DHT22;40360;52.992;6.796;2022-11-11T04:27:05;10.60;99.90
54126;DHT22;40360;52.992;6.796;2022-11-11T04:29:31;10.60;99.90
54126;DHT22;40360;52.992;6.796;2022-11-11T04:32:05;10.60;99.90
54126;DHT22;40360;52.992;6.796;2022-11-11T04:34:52;10.60;99.90
54126;DHT22;40360;52.992;6.796;2022-11-11T04:37:18;10.60;99.90
54126;DHT22;40360;52.992;6.796;2022-11-11T04:39:45;10.60;99.90
54126;DHT22;40360;52.992;6.796;2022-11-11T04:42:30;10.60;99.90
54126;DHT22;40360;52.992;6.796;2022-11-11T04:44:57;10.60;99.90
54126;DHT22;40360;52.992;6.796;2022-11-11T04:47:57;10.60;99.90
54126;DHT22;40360;52.992;6.796;2022-11-11T04:50:25;10.60;99.90
54126;DHT22;40360;52.992;6.796;2022-11-11T04:52:51;10.60;99.90
54126;DHT22;40360;52.992;6.796;2022-11-11T04:55:17;10.60;99.90
54126;DHT22;40360;52.992;6.796;2022-11-11T04:58:01;10.60;99.90
54126;DHT22;40360;52.992;6.796;2022-11-11T05:00:27;10.60;99.90
54126;DHT22;40360;52.992;6.796;2022-11-11T05:21:26;10.60;99.90
54126;DHT22;40360;52.992;6.796;2022-11-11T05:23:52;10.60;99.90
54126;DHT22;40360;52.992;6.796;2022-11-11T05:26:36;10.60;99.90
54126;DHT22;40360;52.992;6.796;2022-11-11T05:29:02;10.70;99.90
54126;DHT22;40360;52.992;6.796;2022-11-11T05:31:29;10.70;99.90
54126;DHT22;40360;52.992;6.796;2022-11-11T05:33:54;10.70;99.90
54126;DHT22;40360;52.992;6.796;2022-11-11T05:36:20;10.70;99.90
54126;DHT22;40360;52.992;6.796;2022-11-11T05:38:49;10.70;99.90
54126;DHT22;40360;52.992;6.796;2022-11-11T05:41:14;10.80;99.90
54126;DHT22;40360;52.992;6.796;2022-11-11T05:43:40;10.80;99.90
54126;DHT22;40360;52.992;6.796;2022-11-11T05:46:05;10.70;99.90
54126;DHT22;40360;52.992;6.796;2022-11-11T05:48:31;10.70;99.90
54126;DHT22;40360;52.992;6.796;2022-11-11T05:51:00;10.80;99.90
54126;DHT22;40360;52.992;6.796;2022-11-11T05:53:25;10.80;99.90
54126;DHT22;40360;52.992;6.796;2022-11-11T05:55:55;10.80;99.90
54126;DHT22;40360;52.992;6.796;2022-11-11T05:58:21;10.70;99.90
54126;DHT22;40360;52.992;6.796;2022-11-11T06:00:46;11.60;99.90
54126;DHT22;40360;52.992;6.796;2022-11-11T06:03:12;10.80;99.90
54126;DHT22;40360;52.992;6.796;2022-11-11T06:05:38;10.70;99.90
54126;DHT22;40360;52.992;6.796;2022-11-11T06:08:04;10.70;99.90
54126;DHT22;40360;52.992;6.796;2022-11-11T06:10:29;10.70;99.90
54126;DHT22;40360;52.992;6.796;2022-11-11T06:12:58;10.70;99.90
54126;DHT22;40360;52.992;6.796;2022-11-11T06:15:33;10.70;99.90
54126;DHT22;40360;52.992;6.796;2022-11-11T06:17:59;10.70;99.90
54126;DHT22;40360;52.992;6.796;2022-11-11T06:20:25;10.70;99.90
54126;DHT22;40360;52.992;6.796;2022-11-11T06:22:51;10.70;99.90
54126;DHT22;40360;52.992;6.796;2022-11-11T06:25:27;10.70;99.90
54126;DHT22;40360;52.992;6.796;2022-11-11T06:28:12;10.70;99.90
54126;DHT22;40360;52.992;6.796;2022-11-11T06:30:38;10.60;99.90
54126;DHT22;40360;52.992;6.796;2022-11-11T06:33:04;10.70;99.90
54126;DHT22;40360;52.992;6.796;2022-11-11T06:35:32;10.70;99.90
54126;DHT22;40360;52.992;6.796;2022-11-11T06:37:58;10.70;99.90
54126;DHT22;40360;52.992;6.796;2022-11-11T06:40:24;10.70;99.90
54126;DHT22;40360;52.992;6.796;2022-11-11T06:42:50;10.70;99.90
54126;DHT22;40360;52.992;6.796;2022-11-11T06:45:15;10.70;99.90
54126;DHT22;40360;52.992;6.796;2022-11-11T06:47:41;10.70;99.90
54126;DHT22;40360;52.992;6.796;2022-11-11T06:50:07;10.70;99.90
54126;DHT22;40360;52.992;6.796;2022-11-11T06:52:33;10.70;99.90
54126;DHT22;40360;52.992;6.796;2022-11-11T06:54:59;10.70;99.90
54126;DHT22;40360;52.992;6.796;2022-11-11T06:57:24;10.70;99.90
54126;DHT22;40360;52.992;6.796;2022-11-11T06:59:50;10.80;99.90
54126;DHT22;40360;52.992;6.796;2022-11-11T07:02:15;10.70;99.90
54126;DHT22;40360;52.992;6.796;2022-11-11T07:04:41;10.70;99.90
54126;DHT22;40360;52.992;6.796;2022-11-11T07:07:07;10.70;99.90
54126;DHT22;40360;52.992;6.796;2022-11-11T07:09:32;10.70;99.90
54126;DHT22;40360;52.992;6.796;2022-11-11T07:11:58;10.70;99.90
54126;DHT22;40360;52.992;6.796;2022-11-11T07:14:24;10.80;99.90
54126;DHT22;40360;52.992;6.796;2022-11-11T07:16:49;10.70;99.90
54126;DHT22;40360;52.992;6.796;2022-11-11T07:19:15;10.80;99.90
54126;DHT22;40360;52.992;6.796;2022-11-11T07:21:41;10.80;99.90
54126;DHT22;40360;52.992;6.796;2022-11-11T07:24:06;10.80;99.90
54126;DHT22;40360;52.992;6.796;2022-11-11T07:26:32;10.80;99.90
54126;DHT22;40360;52.992;6.796;2022-11-11T07:28:57;10.80;99.90
54126;DHT22;40360;52.992;6.796;2022-11-11T07:31:23;10.80;99.90
54126;DHT22;40360;52.992;6.796;2022-11-11T07:33:48;10.80;99.90
54126;DHT22;40360;52.992;6.796;2022-11-11T07:36:14;10.80;99.90
54126;DHT22;40360;52.992;6.796;2022-11-11T07:38:40;10.80;99.90
54126;DHT22;40360;52.992;6.796;2022-11-11T07:41:05;10.80;99.90
54126;DHT22;40360;52.992;6.796;2022-11-11T07:43:31;10.80;99.90
54126;DHT22;40360;52.992;6.796;2022-11-11T07:45:56;10.80;99.90
54126;DHT22;40360;52.992;6.796;2022-11-11T07:48:22;10.90;99.90
54126;DHT22;40360;52.992;6.796;2022-11-11T07:50:47;10.90;99.90
54126;DHT22;40360;52.992;6.796;2022-11-11T07:53:13;10.90;99.90
54126;DHT22;40360;52.992;6.796;2022-11-11T07:55:39;10.90;99.90
54126;DHT22;40360;52.992;6.796;2022-11-11T07:58:05;10.90;99.90
54126;DHT22;40360;52.992;6.796;2022-11-11T08:00:31;10.90;99.90
54126;DHT22;40360;52.992;6.796;2022-11-11T08:02:57;10.90;99.90
54126;DHT22;40360;52.992;6.796;2022-11-11T08:05:23;10.90;99.90
54126;DHT22;40360;52.992;6.796;2022-11-11T08:07:48;10.90;99.90
54126;DHT22;40360;52.992;6.796;2022-11-11T08:10:14;10.90;99.90
54126;DHT22;40360;52.992;6.796;2022-11-11T08:12:39;10.90;99.90
54126;DHT22;40360;52.992;6.796;2022-11-11T08:15:23;10.90;99.90
54126;DHT22;40360;52.992;6.796;2022-11-11T08:17:49;10.90;99.90
54126;DHT22;40360;52.992;6.796;2022-11-11T08:20:15;10.90;99.90
54126;DHT22;40360;52.992;6.796;2022-11-11T08:22:41;10.90;99.90
54126;DHT22;40360;52.992;6.796;2022-11-11T08:25:08;11.00;99.90
54126;DHT22;40360;52.992;6.796;2022-11-11T08:27:35;11.00;99.90
54126;DHT22;40360;52.992;6.796;2022-11-11T08:30:01;11.00;99.90
54126;DHT22;40360;52.992;6.796;2022-11-11T08:32:27;11.00;99.90
54126;DHT22;40360;52.992;6.796;2022-11-11T08:34:52;11.00;99.90
54126;DHT22;40360;52.992;6.796;2022-11-11T08:37:18;11.00;99.90
54126;DHT22;40360;52.992;6.796;2022-11-11T08:39:43;11.00;99.90
54126;DHT22;40360;52.992;6.796;2022-11-11T08:42:09;11.00;99.90
54126;DHT22;40360;52.992;6.796;2022-11-11T08:44:35;11.00;99.90
54126;DHT22;40360;52.992;6.796;2022-11-11T08:47:00;11.10;99.90
54126;DHT22;40360;52.992;6.796;2022-11-11T08:49:26;11.10;99.90
54126;DHT22;40360;52.992;6.796;2022-11-11T08:51:51;11.10;99.90
54126;DHT22;40360;52.992;6.796;2022-11-11T08:54:17;11.10;99.90
54126;DHT22;40360;52.992;6.796;2022-11-11T08:56:42;11.10;99.90
54126;DHT22;40360;52.992;6.796;2022-11-11T08:59:08;11.20;99.90
54126;DHT22;40360;52.992;6.796;2022-11-11T09:01:35;11.20;99.90
54126;DHT22;40360;52.992;6.796;2022-11-11T09:04:00;11.20;99.90
54126;DHT22;40360;52.992;6.796;2022-11-11T09:06:28;11.20;99.90
54126;DHT22;40360;52.992;6.796;2022-11-11T09:08:53;11.30;99.90
54126;DHT22;40360;52.992;6.796;2022-11-11T09:11:19;11.30;99.90
54126;DHT22;40360;52.992;6.796;2022-11-11T09:13:48;11.30;99.90
54126;DHT22;40360;52.992;6.796;2022-11-11T09:16:13;11.30;99.90
54126;DHT22;40360;52.992;6.796;2022-11-11T09:18:39;11.30;99.90
54126;DHT22;40360;52.992;6.796;2022-11-11T09:21:05;11.30;99.90
54126;DHT22;40360;52.992;6.796;2022-11-11T09:23:31;11.30;99.90
54126;DHT22;40360;52.992;6.796;2022-11-11T09:26:00;11.30;99.90
54126;DHT22;40360;52.992;6.796;2022-11-11T09:28:29;11.30;99.90
54126;DHT22;40360;52.992;6.796;2022-11-11T09:30:58;11.30;99.90
54126;DHT22;40360;52.992;6.796;2022-11-11T09:33:25;11.40;99.90
54126;DHT22;40360;52.992;6.796;2022-11-11T09:35:50;11.40;99.90
54126;DHT22;40360;52.992;6.796;2022-11-11T09:38:16;11.40;99.90
54126;DHT22;40360;52.992;6.796;2022-11-11T09:46:53;11.40;99.90
54126;DHT22;40360;52.992;6.796;2022-11-11T09:49:33;11.50;99.90
54126;DHT22;40360;52.992;6.796;2022-11-11T09:52:16;11.50;99.90
54126;DHT22;40360;52.992;6.796;2022-11-11T09:57:36;11.50;99.90
54126;DHT22;40360;52.992;6.796;2022-11-11T10:00:06;11.50;99.90
54126;DHT22;40360;52.992;6.796;2022-11-11T10:02:54;11.50;99.90
54126;DHT22;40360;52.992;6.796;2022-11-11T10:05:26;11.60;99.90
54126;DHT22;40360;52.992;6.796;2022-11-11T10:08:10;11.60;99.90
54126;DHT22;40360;52.992;6.796;2022-11-11T10:10:47;11.60;99.90
54126;DHT22;40360;52.992;6.796;2022-11-11T10:13:23;11.70;99.90
54126;DHT22;40360;52.992;6.796;2022-11-11T10:21:36;11.80;99.90
54126;DHT22;40360;52.992;6.796;2022-11-11T10:24:11;11.80;99.90
54126;DHT22;40360;52.992;6.796;2022-11-11T10:26:40;11.80;99.90
54126;DHT22;40360;52.992;6.796;2022-11-11T10:29:28;11.80;99.90
54126;DHT22;40360;52.992;6.796;2022-11-11T10:32:15;11.80;99.90
54126;DHT22;40360;52.992;6.796;2022-11-11T10:34:43;11.80;99.90
54126;DHT22;40360;52.992;6.796;2022-11-11T10:37:23;11.80;99.90
54126;DHT22;40360;52.992;6.796;2022-11-11T10:42:42;11.80;99.90
54126;DHT22;40360;52.992;6.796;2022-11-11T10:45:20;11.70;99.90
54126;DHT22;40360;52.992;6.796;2022-11-11T10:50:35;11.90;99.90
54126;DHT22;40360;52.992;6.796;2022-11-11T10:55:37;12.00;99.90
54126;DHT22;40360;52.992;6.796;2022-11-11T11:00:48;12.00;99.90
54126;DHT22;40360;52.992;6.796;2022-11-11T11:03:24;12.00;99.90
54126;DHT22;40360;52.992;6.796;2022-11-11T11:06:17;12.00;99.90
54126;DHT22;40360;52.992;6.796;2022-11-11T11:08:45;12.00;99.90
54126;DHT22;40360;52.992;6.796;2022-11-11T11:11:35;12.10;99.90
54126;DHT22;40360;52.992;6.796;2022-11-11T11:14:29;12.10;99.90
54126;DHT22;40360;52.992;6.796;2022-11-11T11:16:54;12.10;99.90
54126;DHT22;40360;52.992;6.796;2022-11-11T11:19:24;12.10;99.90
54126;DHT22;40360;52.992;6.796;2022-11-11T11:21:55;12.10;99.90
54126;DHT22;40360;52.992;6.796;2022-11-11T11:24:23;12.10;99.90
54126;DHT22;40360;52.992;6.796;2022-11-11T11:26:52;12.10;99.90
54126;DHT22;40360;52.992;6.796;2022-11-11T11:29:41;12.20;99.90
54126;DHT22;40360;52.992;6.796;2022-11-11T11:34:50;12.20;99.90
54126;DHT22;40360;52.992;6.796;2022-11-11T11:37:17;12.10;99.90
54126;DHT22;40360;52.992;6.796;2022-11-11T11:39:44;12.10;99.90
54126;DHT22;40360;52.992;6.796;2022-11-11T11:42:26;12.20;99.90
54126;DHT22;40360;52.992;6.796;2022-11-11T11:44:52;12.10;99.90
54126;DHT22;40360;52.992;6.796;2022-11-11T11:50:23;12.10;99.90
54126;DHT22;40360;52.992;6.796;2022-11-11T11:55:33;12.20;99.90
54126;DHT22;40360;52.992;6.796;2022-11-11T12:01:25;12.10;99.90
54126;DHT22;40360;52.992;6.796;2022-11-11T12:07:11;12.10;99.90
54126;DHT22;40360;52.992;6.796;2022-11-11T12:09:47;12.10;99.90
54126;DHT22;40360;52.992;6.796;2022-11-11T12:12:34;12.00;99.90
54126;DHT22;40360;52.992;6.796;2022-11-11T12:15:20;11.90;99.90
54126;DHT22;40360;52.992;6.796;2022-11-11T12:18:12;11.90;99.90
54126;DHT22;40360;52.992;6.796;2022-11-11T12:20:49;11.90;99.90
54126;DHT22;40360;52.992;6.796;2022-11-11T12:28:56;11.90;99.90
54126;DHT22;40360;52.992;6.796;2022-11-11T12:36:46;12.10;99.90
54126;DHT22;40360;52.992;6.796;2022-11-11T12:39:48;12.10;99.90
54126;DHT22;40360;52.992;6.796;2022-11-11T12:45:18;12.10;99.90
54126;DHT22;40360;52.992;6.796;2022-11-11T12:48:08;12.20;99.90
54126;DHT22;40360;52.992;6.796;2022-11-11T12:56:17;12.30;99.90
54126;DHT22;40360;52.992;6.796;2022-11-11T12:58:50;12.30;99.90
54126;DHT22;40360;52.992;6.796;2022-11-11T13:15:24;12.30;99.90
54126;DHT22;40360;52.992;6.796;2022-11-11T13:17:50;12.30;99.90
54126;DHT22;40360;52.992;6.796;2022-11-11T13:23:08;12.20;99.90
54126;DHT22;40360;52.992;6.796;2022-11-11T13:25:37;12.20;99.90
54126;DHT22;40360;52.992;6.796;2022-11-11T13:28:13;12.20;99.90
54126;DHT22;40360;52.992;6.796;2022-11-11T13:33:41;12.20;99.90
54126;DHT22;40360;52.992;6.796;2022-11-11T13:36:12;12.20;99.90
54126;DHT22;40360;52.992;6.796;2022-11-11T13:38:47;12.20;99.90
54126;DHT22;40360;52.992;6.796;2022-11-11T13:41:30;12.20;99.90
54126;DHT22;40360;52.992;6.796;2022-11-11T13:43:58;12.20;99.90
54126;DHT22;40360;52.992;6.796;2022-11-11T13:46:42;12.20;99.90
54126;DHT22;40360;52.992;6.796;2022-11-11T13:49:25;12.30;99.90
54126;DHT22;40360;52.992;6.796;2022-11-11T13:52:04;12.30;99.90
54126;DHT22;40360;52.992;6.796;2022-11-11T13:54:38;12.40;99.90
54126;DHT22;40360;52.992;6.796;2022-11-11T13:57:15;12.40;99.90
54126;DHT22;40360;52.992;6.796;2022-11-11T13:59:48;12.40;99.90
54126;DHT22;40360;52.992;6.796;2022-11-11T14:17:59;12.50;99.90
54126;DHT22;40360;52.992;6.796;2022-11-11T14:20:35;12.40;99.90
54126;DHT22;40360;52.992;6.796;2022-11-11T14:23:23;12.40;99.90
54126;DHT22;40360;52.992;6.796;2022-11-11T14:33:58;12.30;99.90
54126;DHT22;40360;52.992;6.796;2022-11-11T14:39:07;12.30;99.90
54126;DHT22;40360;52.992;6.796;2022-11-11T14:44:37;12.20;99.90
54126;DHT22;40360;52.992;6.796;2022-11-11T14:49:56;12.30;99.90
54126;DHT22;40360;52.992;6.796;2022-11-11T14:52:43;12.20;99.90
54126;DHT22;40360;52.992;6.796;2022-11-11T14:55:13;12.20;99.90
54126;DHT22;40360;52.992;6.796;2022-11-11T14:57:45;12.20;99.90
54126;DHT22;40360;52.992;6.796;2022-11-11T15:11:20;12.10;99.90
54126;DHT22;40360;52.992;6.796;2022-11-11T15:14:29;12.10;99.90
54126;DHT22;40360;52.992;6.796;2022-11-11T15:22:35;11.90;99.90
54126;DHT22;40360;52.992;6.796;2022-11-11T15:30:44;11.60;99.90
54126;DHT22;40360;52.992;6.796;2022-11-11T15:33:20;11.50;99.90
54126;DHT22;40360;52.992;6.796;2022-11-11T15:35:57;11.50;99.90
54126;DHT22;40360;52.992;6.796;2022-11-11T15:38:25;11.30;99.90
54126;DHT22;40360;52.992;6.796;2022-11-11T15:40:56;12.20;99.90
54126;DHT22;40360;52.992;6.796;2022-11-11T15:43:29;11.20;99.90
54126;DHT22;40360;52.992;6.796;2022-11-11T15:46:00;11.10;99.90
54126;DHT22;40360;52.992;6.796;2022-11-11T15:48:32;11.00;99.90
54126;DHT22;40360;52.992;6.796;2022-11-11T15:51:31;11.00;99.90
54126;DHT22;40360;52.992;6.796;2022-11-11T15:54:16;11.00;99.90
54126;DHT22;40360;52.992;6.796;2022-11-11T15:56:43;10.90;99.90
54126;DHT22;40360;52.992;6.796;2022-11-11T15:59:22;10.80;99.90
54126;DHT22;40360;52.992;6.796;2022-11-11T16:01:49;10.80;99.90
54126;DHT22;40360;52.992;6.796;2022-11-11T16:04:19;10.80;99.90
54126;DHT22;40360;52.992;6.796;2022-11-11T16:06:46;10.70;99.90
54126;DHT22;40360;52.992;6.796;2022-11-11T16:09:14;10.70;99.90
54126;DHT22;40360;52.992;6.796;2022-11-11T16:11:41;10.60;99.90
54126;DHT22;40360;52.992;6.796;2022-11-11T16:14:17;10.60;99.90
54126;DHT22;40360;52.992;6.796;2022-11-11T16:16:45;10.60;99.90
54126;DHT22;40360;52.992;6.796;2022-11-11T16:19:33;10.50;99.90
54126;DHT22;40360;52.992;6.796;2022-11-11T16:22:21;10.60;99.90
54126;DHT22;40360;52.992;6.796;2022-11-11T16:24:47;10.50;99.90
54126;DHT22;40360;52.992;6.796;2022-11-11T16:27:19;10.50;99.90
54126;DHT22;40360;52.992;6.796;2022-11-11T16:29:46;10.50;99.90
54126;DHT22;40360;52.992;6.796;2022-11-11T16:34:43;10.50;99.90
54126;DHT22;40360;52.992;6.796;2022-11-11T16:37:10;10.50;99.90
54126;DHT22;40360;52.992;6.796;2022-11-11T16:39:38;10.50;99.90
54126;DHT22;40360;52.992;6.796;2022-11-11T16:42:20;10.50;99.90
54126;DHT22;40360;52.992;6.796;2022-11-11T16:44:52;10.50;99.90
54126;DHT22;40360;52.992;6.796;2022-11-11T16:47:40;10.40;99.90
54126;DHT22;40360;52.992;6.796;2022-11-11T16:50:21;10.40;99.90
54126;DHT22;40360;52.992;6.796;2022-11-11T16:52:51;10.40;99.90
54126;DHT22;40360;52.992;6.796;2022-11-11T16:55:27;10.30;99.90
54126;DHT22;40360;52.992;6.796;2022-11-11T16:58:01;10.20;99.90
54126;DHT22;40360;52.992;6.796;2022-11-11T17:00:27;10.10;99.90
54126;DHT22;40360;52.992;6.796;2022-11-11T17:03:13;10.10;99.90
54126;DHT22;40360;52.992;6.796;2022-11-11T17:06:06;10.00;99.90
54126;DHT22;40360;52.992;6.796;2022-11-11T17:08:39;10.00;99.90
54126;DHT22;40360;52.992;6.796;2022-11-11T17:12:01;9.90;99.90
54126;DHT22;40360;52.992;6.796;2022-11-11T17:14:20;9.80;99.90
54126;DHT22;40360;52.992;6.796;2022-11-11T17:16:46;9.80;99.90
54126;DHT22;40360;52.992;6.796;2022-11-11T17:19:12;9.70;99.90
54126;DHT22;40360;52.992;6.796;2022-11-11T17:21:38;9.70;99.90
54126;DHT22;40360;52.992;6.796;2022-11-11T17:24:03;9.70;99.90
54126;DHT22;40360;52.992;6.796;2022-11-11T17:26:29;9.70;99.90
54126;DHT22;40360;52.992;6.796;2022-11-11T17:28:55;9.70;99.90
54126;DHT22;40360;52.992;6.796;2022-11-11T17:31:22;9.70;99.90
54126;DHT22;40360;52.992;6.796;2022-11-11T17:33:51;9.70;99.90
54126;DHT22;40360;52.992;6.796;2022-11-11T17:36:16;9.70;99.90
54126;DHT22;40360;52.992;6.796;2022-11-11T17:38:42;9.70;99.90
54126;DHT22;40360;52.992;6.796;2022-11-11T17:41:12;9.70;99.90
54126;DHT22;40360;52.992;6.796;2022-11-11T17:43:38;9.70;99.90
54126;DHT22;40360;52.992;6.796;2022-11-11T17:46:04;9.70;99.90
54126;DHT22;40360;52.992;6.796;2022-11-11T17:48:30;9.60;99.90
54126;DHT22;40360;52.992;6.796;2022-11-11T17:50:56;9.80;99.90
54126;DHT22;40360;52.992;6.796;2022-11-11T17:53:21;9.60;99.90
54126;DHT22;40360;52.992;6.796;2022-11-11T17:55:47;9.50;99.90
54126;DHT22;40360;52.992;6.796;2022-11-11T17:58:13;9.50;99.90
54126;DHT22;40360;52.992;6.796;2022-11-11T18:00:38;9.50;99.90
54126;DHT22;40360;52.992;6.796;2022-11-11T18:03:06;9.40;99.90
54126;DHT22;40360;52.992;6.796;2022-11-11T18:05:35;9.40;99.90
54126;DHT22;40360;52.992;6.796;2022-11-11T18:08:01;9.40;99.90
54126;DHT22;40360;52.992;6.796;2022-11-11T18:10:27;9.30;99.90
54126;DHT22;40360;52.992;6.796;2022-11-11T18:12:53;9.20;99.90
54126;DHT22;40360;52.992;6.796;2022-11-11T18:15:19;9.10;99.90
54126;DHT22;40360;52.992;6.796;2022-11-11T18:17:46;9.10;99.90
54126;DHT22;40360;52.992;6.796;2022-11-11T18:20:11;9.00;99.90
54126;DHT22;40360;52.992;6.796;2022-11-11T18:22:38;8.90;99.90
54126;DHT22;40360;52.992;6.796;2022-11-11T18:25:04;8.90;99.90
54126;DHT22;40360;52.992;6.796;2022-11-11T18:27:29;8.90;99.90
54126;DHT22;40360;52.992;6.796;2022-11-11T18:29:55;8.80;99.90
54126;DHT22;40360;52.992;6.796;2022-11-11T18:32:20;8.80;99.90
54126;DHT22;40360;52.992;6.796;2022-11-11T18:34:46;8.80;99.90